createdAt,value
2018-03-01T00:01:42.997Z,72.80
2018-03-01T00:02:42.797Z,72.80
2018-03-01T00:04:35.608Z,72.80
2018-03-01T00:05:35.503Z,72.70
2018-03-01T00:07:28.539Z,72.80
2018-03-01T00:08:28.404Z,72.89
2018-03-01T00:10:21.168Z,72.99
2018-03-01T00:11:21.038Z,72.99
2018-03-01T00:13:14.309Z,72.70
2018-03-01T00:14:14.197Z,72.42
2018-03-01T00:16:06.998Z,72.89
2018-03-01T00:17:06.863Z,72.99
2018-03-01T00:19:00.033Z,72.61
2018-03-01T00:19:59.625Z,73.27
2018-03-01T00:21:52.379Z,73.27
2018-03-01T00:22:52.246Z,73.36
2018-03-01T00:24:45.316Z,73.36
2018-03-01T00:25:45.207Z,72.89
2018-03-01T00:27:38.204Z,72.70
2018-03-01T00:28:38.063Z,72.80
2018-03-01T00:30:30.881Z,73.27
2018-03-01T00:31:30.711Z,72.89
2018-03-01T00:33:23.600Z,72.70
2018-03-01T00:34:23.445Z,73.27
2018-03-01T00:36:16.205Z,73.36
2018-03-01T00:37:16.095Z,73.17
2018-03-01T00:39:08.878Z,73.36
2018-03-01T00:40:08.743Z,73.17
2018-03-01T00:42:01.496Z,73.08
2018-03-01T00:43:01.384Z,73.17
2018-03-01T00:44:54.181Z,73.36
2018-03-01T00:45:54.035Z,73.17
2018-03-01T00:47:46.887Z,73.36
2018-03-01T00:48:46.798Z,73.17
2018-03-01T00:50:39.559Z,73.55
2018-03-01T00:51:39.562Z,73.36
2018-03-01T00:53:32.271Z,74.02
2018-03-01T00:54:32.082Z,73.36
2018-03-01T00:56:24.855Z,73.46
2018-03-01T00:57:24.727Z,73.46
2018-03-01T00:59:17.510Z,73.65
2018-03-01T01:00:17.373Z,73.36
2018-03-01T01:02:10.276Z,73.65
2018-03-01T01:03:10.117Z,73.65
2018-03-01T01:05:02.898Z,73.65
2018-03-01T01:06:02.768Z,73.65
2018-03-01T01:07:55.566Z,73.46
2018-03-01T01:08:55.422Z,73.17
2018-03-01T01:10:48.282Z,73.83
2018-03-01T01:11:48.166Z,73.46
2018-03-01T01:13:40.938Z,73.65
2018-03-01T01:14:40.894Z,73.65
2018-03-01T01:16:34.079Z,73.55
2018-03-01T01:17:33.661Z,73.83
2018-03-01T01:19:26.793Z,73.83
2018-03-01T01:20:26.438Z,73.55
2018-03-01T01:22:19.381Z,74.02
2018-03-01T01:23:19.269Z,73.65
2018-03-01T01:25:12.154Z,74.02
2018-03-01T01:26:12.022Z,74.11
2018-03-01T01:28:04.879Z,73.46
2018-03-01T01:29:05.778Z,74.02
2018-03-01T01:31:12.540Z,73.83
2018-03-01T01:32:12.389Z,74.21
2018-03-01T01:34:05.128Z,74.02
2018-03-01T01:35:05.026Z,73.74
2018-03-01T01:36:58.396Z,73.93
2018-03-01T01:37:58.267Z,74.11
2018-03-01T01:39:51.539Z,74.21
2018-03-01T01:40:51.433Z,74.02
2018-03-01T01:42:44.831Z,74.02
2018-03-01T01:43:44.698Z,74.02
2018-03-01T01:45:37.548Z,74.21
2018-03-01T01:46:37.447Z,74.02
2018-03-01T01:48:30.320Z,73.65
2018-03-01T01:49:30.192Z,73.74
2018-03-01T01:51:23.053Z,73.55
2018-03-01T01:52:22.940Z,73.55
2018-03-01T01:54:15.813Z,73.46
2018-03-01T01:55:15.688Z,73.83
2018-03-01T01:57:08.545Z,73.83
2018-03-01T01:58:08.442Z,74.02
2018-03-01T02:00:01.333Z,73.55
2018-03-01T02:01:01.202Z,73.93
2018-03-01T02:02:53.968Z,73.55
2018-03-01T02:03:53.835Z,73.55
2018-03-01T02:05:46.729Z,74.02
2018-03-01T02:06:46.588Z,73.65
2018-03-01T02:08:39.473Z,73.74
2018-03-01T02:09:39.349Z,73.65
2018-03-01T02:11:32.231Z,73.83
2018-03-01T02:12:32.119Z,73.74
2018-03-01T02:14:24.967Z,74.02
2018-03-01T02:15:24.837Z,74.02
2018-03-01T02:17:17.714Z,73.65
2018-03-01T02:18:17.601Z,73.74
2018-03-01T02:20:10.459Z,73.74
2018-03-01T02:21:10.442Z,73.55
2018-03-01T02:23:04.137Z,73.55
2018-03-01T02:24:04.031Z,73.65
2018-03-01T02:25:56.882Z,73.55
2018-03-01T02:26:56.782Z,73.74
2018-03-01T02:28:49.622Z,73.93
2018-03-01T02:29:49.508Z,74.02
2018-03-01T02:31:42.403Z,74.02
2018-03-01T02:32:42.253Z,73.93
2018-03-01T02:34:35.140Z,74.02
2018-03-01T02:35:35.004Z,74.21
2018-03-01T02:37:27.911Z,74.11
2018-03-01T02:38:27.762Z,74.40
2018-03-01T02:40:20.628Z,74.49
2018-03-01T02:41:20.505Z,74.49
2018-03-01T02:43:13.401Z,74.40
2018-03-01T02:44:13.253Z,74.58
2018-03-01T02:46:06.123Z,74.30
2018-03-01T02:47:06.018Z,74.58
2018-03-01T02:48:58.928Z,74.77
2018-03-01T02:49:58.750Z,74.77
2018-03-01T02:51:51.655Z,74.96
2018-03-01T02:52:51.506Z,74.49
2018-03-01T02:54:44.810Z,74.68
2018-03-01T02:55:44.657Z,74.68
2018-03-01T02:57:37.523Z,74.58
2018-03-01T02:58:37.409Z,74.87
2018-03-01T03:00:30.298Z,74.58
2018-03-01T03:01:30.166Z,74.96
2018-03-01T03:03:23.026Z,74.77
2018-03-01T03:04:22.921Z,75.05
2018-03-01T03:06:15.790Z,74.68
2018-03-01T03:07:15.666Z,74.77
2018-03-01T03:09:08.533Z,75.15
2018-03-01T03:10:08.895Z,74.58
2018-03-01T03:12:01.313Z,74.77
2018-03-01T03:13:01.157Z,74.77
2018-03-01T03:14:54.053Z,74.87
2018-03-01T03:15:53.927Z,74.87
2018-03-01T03:17:46.777Z,74.87
2018-03-01T03:18:46.658Z,74.96
2018-03-01T03:20:39.558Z,75.15
2018-03-01T03:21:39.406Z,75.05
2018-03-01T03:23:32.290Z,75.15
2018-03-01T03:24:32.197Z,75.05
2018-03-01T03:26:25.051Z,75.15
2018-03-01T03:27:24.968Z,75.24
2018-03-01T03:29:17.776Z,75.05
2018-03-01T03:30:17.666Z,74.96
2018-03-01T03:32:10.557Z,74.68
2018-03-01T03:33:10.403Z,74.87
2018-03-01T03:35:03.331Z,75.05
2018-03-01T03:36:03.188Z,74.87
2018-03-01T03:37:56.058Z,75.15
2018-03-01T03:38:55.902Z,75.43
2018-03-01T03:40:48.777Z,75.43
2018-03-01T03:41:48.651Z,75.90
2018-03-01T03:43:41.931Z,76.18
2018-03-01T03:44:41.811Z,76.18
2018-03-01T03:46:34.712Z,75.99
2018-03-01T03:47:34.558Z,75.99
2018-03-01T03:49:27.429Z,75.90
2018-03-01T03:50:27.308Z,75.71
2018-03-01T03:52:20.191Z,76.18
2018-03-01T03:53:20.081Z,75.99
2018-03-01T03:55:12.918Z,76.18
2018-03-01T03:56:12.832Z,76.18
2018-03-01T03:58:05.701Z,75.99
2018-03-01T03:59:05.556Z,75.90
2018-03-01T04:00:58.445Z,76.09
2018-03-01T04:01:58.314Z,76.09
2018-03-01T04:03:51.696Z,75.71
2018-03-01T04:04:51.568Z,75.90
2018-03-01T04:06:44.948Z,75.71
2018-03-01T04:07:44.835Z,75.99
2018-03-01T04:09:37.707Z,76.09
2018-03-01T04:10:37.578Z,75.71
2018-03-01T04:12:30.503Z,75.71
2018-03-01T04:13:30.328Z,76.09
2018-03-01T04:15:23.609Z,75.71
2018-03-01T04:16:23.488Z,75.99
2018-03-01T04:18:16.878Z,76.46
2018-03-01T04:19:16.783Z,76.28
2018-03-01T04:21:10.296Z,76.28
2018-03-01T04:22:10.112Z,76.84
2018-03-01T04:24:02.976Z,76.18
2018-03-01T04:25:02.872Z,76.28
2018-03-01T04:26:55.845Z,77.03
2018-03-01T04:27:55.734Z,76.75
2018-03-01T04:29:48.584Z,76.65
2018-03-01T04:30:48.396Z,76.75
2018-03-01T04:32:41.967Z,76.75
2018-03-01T04:33:41.835Z,77.12
2018-03-01T04:35:34.694Z,76.84
2018-03-01T04:36:34.592Z,76.75
2018-03-01T04:38:27.472Z,77.50
2018-03-01T04:39:27.334Z,77.31
2018-03-01T04:41:20.196Z,77.03
2018-03-01T04:42:20.079Z,77.41
2018-03-01T04:44:12.954Z,77.03
2018-03-01T04:45:12.878Z,77.31
2018-03-01T04:47:05.684Z,77.12
2018-03-01T04:48:05.600Z,77.12
2018-03-01T04:49:58.464Z,77.60
2018-03-01T04:50:58.338Z,77.41
2018-03-01T04:52:51.220Z,77.31
2018-03-01T04:53:51.079Z,77.97
2018-03-01T04:55:44.016Z,78.16
2018-03-01T04:56:43.826Z,78.44
2018-03-01T04:58:36.692Z,78.35
2018-03-01T04:59:36.588Z,78.26
2018-03-01T05:01:29.447Z,78.82
2018-03-01T05:02:29.324Z,78.63
2018-03-01T05:04:22.236Z,78.82
2018-03-01T05:05:22.077Z,78.82
2018-03-01T05:07:14.949Z,79.01
2018-03-01T05:08:14.824Z,78.73
2018-03-01T05:10:07.690Z,79.29
2018-03-01T05:11:07.581Z,79.39
2018-03-01T05:13:01.917Z,79.20
2018-03-01T05:14:01.782Z,78.82
2018-03-01T05:15:54.662Z,80.05
2018-03-01T05:16:54.511Z,79.76
2018-03-01T05:18:47.285Z,79.86
2018-03-01T05:19:47.161Z,80.24
2018-03-01T05:21:40.025Z,80.33
2018-03-01T05:22:39.921Z,80.42
2018-03-01T05:24:32.782Z,80.52
2018-03-01T05:25:32.658Z,80.61
2018-03-01T05:27:25.523Z,80.71
2018-03-01T05:28:25.398Z,80.42
2018-03-01T05:30:18.280Z,80.52
2018-03-01T05:31:18.195Z,81.08
2018-03-01T05:33:11.009Z,80.90
2018-03-01T05:34:10.902Z,80.90
2018-03-01T05:36:03.831Z,80.90
2018-03-01T05:37:03.682Z,80.80
2018-03-01T05:38:56.513Z,81.27
2018-03-01T05:39:56.408Z,81.37
2018-03-01T05:41:49.286Z,81.08
2018-03-01T05:42:49.144Z,81.18
2018-03-01T05:44:42.628Z,80.80
2018-03-01T05:45:42.509Z,80.99
2018-03-01T05:47:35.341Z,81.08
2018-03-01T05:48:35.164Z,81.08
2018-03-01T05:50:27.915Z,81.08
2018-03-01T05:51:27.814Z,80.99
2018-03-01T05:53:20.588Z,81.18
2018-03-01T05:54:20.458Z,81.27
2018-03-01T05:56:13.222Z,80.52
2018-03-01T05:57:13.117Z,80.99
2018-03-01T05:59:05.877Z,81.46
2018-03-01T06:00:05.767Z,80.99
2018-03-01T06:01:58.517Z,80.80
2018-03-01T06:02:58.411Z,81.08
2018-03-01T06:04:51.177Z,80.99
2018-03-01T06:05:51.059Z,81.08
2018-03-01T06:07:45.345Z,80.90
2018-03-01T06:08:45.253Z,81.08
2018-03-01T06:10:38.103Z,81.08
2018-03-01T06:11:37.975Z,80.80
2018-03-01T06:13:30.865Z,81.56
2018-03-01T06:14:30.727Z,81.37
2018-03-01T06:16:23.606Z,81.37
2018-03-01T06:17:23.541Z,81.56
2018-03-01T06:19:16.350Z,81.56
2018-03-01T06:20:16.239Z,81.27
2018-03-01T06:22:09.238Z,81.93
2018-03-01T06:23:08.978Z,81.84
2018-03-01T06:25:01.879Z,82.03
2018-03-01T06:26:01.733Z,81.84
2018-03-01T06:27:54.602Z,82.03
2018-03-01T06:28:54.478Z,81.74
2018-03-01T06:30:47.440Z,81.74
2018-03-01T06:31:47.249Z,81.74
2018-03-01T06:33:40.088Z,81.65
2018-03-01T06:34:39.979Z,81.27
2018-03-01T06:36:32.855Z,81.27
2018-03-01T06:37:32.721Z,81.46
2018-03-01T06:39:25.583Z,81.18
2018-03-01T06:40:25.486Z,81.46
2018-03-01T06:42:18.370Z,81.18
2018-03-01T06:43:18.224Z,81.18
2018-03-01T06:45:11.084Z,80.90
2018-03-01T06:46:10.969Z,81.46
2018-03-01T06:48:03.846Z,81.37
2018-03-01T06:49:03.741Z,81.18
2018-03-01T06:50:57.109Z,81.37
2018-03-01T06:51:57.007Z,81.27
2018-03-01T06:53:49.871Z,81.56
2018-03-01T06:54:49.729Z,81.08
2018-03-01T06:56:43.062Z,80.90
2018-03-01T06:57:42.478Z,81.08
2018-03-01T06:59:35.372Z,80.80
2018-03-01T07:00:35.282Z,80.99
2018-03-01T07:02:28.915Z,81.37
2018-03-01T07:03:28.795Z,81.37
2018-03-01T07:05:21.586Z,80.52
2018-03-01T07:06:21.453Z,80.61
2018-03-01T07:08:14.306Z,80.61
2018-03-01T07:09:14.196Z,80.52
2018-03-01T07:11:09.099Z,80.42
2018-03-01T07:12:08.889Z,80.61
2018-03-01T07:14:02.372Z,80.14
2018-03-01T07:15:02.261Z,80.42
2018-03-01T07:16:55.679Z,79.95
2018-03-01T07:17:55.518Z,80.05
2018-03-01T07:19:48.384Z,79.86
2018-03-01T07:20:48.271Z,79.29
2018-03-01T07:22:42.679Z,79.20
2018-03-01T07:23:41.535Z,79.29
2018-03-01T07:25:34.941Z,79.86
2018-03-01T07:26:34.786Z,79.29
2018-03-01T07:28:27.678Z,79.20
2018-03-01T07:29:27.538Z,79.20
2018-03-01T07:31:20.487Z,79.48
2018-03-01T07:32:21.768Z,79.76
2018-03-01T07:34:13.214Z,79.67
2018-03-01T07:35:13.049Z,80.05
2018-03-01T07:37:06.010Z,80.33
2018-03-01T07:38:05.896Z,80.52
2018-03-01T07:39:58.784Z,80.71
2018-03-01T07:40:58.652Z,80.71
2018-03-01T07:42:52.042Z,80.52
2018-03-01T07:43:51.912Z,80.52
2018-03-01T07:45:44.808Z,80.52
2018-03-01T07:46:44.652Z,80.52
2018-03-01T07:48:37.631Z,80.52
2018-03-01T07:49:37.508Z,80.52
2018-03-01T07:51:30.402Z,80.52
2018-03-01T07:52:30.257Z,80.42
2018-03-01T07:54:23.634Z,80.05
2018-03-01T07:55:23.521Z,79.95
2018-03-01T07:57:16.388Z,79.10
2018-03-01T07:58:16.262Z,79.20
2018-03-01T08:00:09.162Z,79.20
2018-03-01T08:01:09.020Z,79.10
2018-03-01T08:03:01.914Z,79.20
2018-03-01T08:04:01.767Z,79.29
2018-03-01T08:05:54.631Z,78.44
2018-03-01T08:06:54.514Z,78.26
2018-03-01T08:08:47.411Z,78.16
2018-03-01T08:09:47.264Z,78.07
2018-03-01T08:11:40.147Z,78.16
2018-03-01T08:12:40.009Z,78.07
2018-03-01T08:14:32.892Z,77.97
2018-03-01T08:15:32.773Z,77.50
2018-03-01T08:17:25.633Z,77.41
2018-03-01T08:18:25.507Z,77.31
2018-03-01T08:20:18.436Z,77.03
2018-03-01T08:21:18.261Z,77.50
2018-03-01T08:23:11.139Z,77.69
2018-03-01T08:24:11.015Z,77.60
2018-03-01T08:26:03.923Z,77.07
2018-03-01T08:27:03.771Z,77.17
2018-03-01T08:28:56.626Z,77.07
2018-03-01T08:29:56.510Z,76.60
2018-03-01T08:31:49.404Z,76.04
2018-03-01T08:32:49.261Z,76.22
2018-03-01T08:34:42.635Z,76.13
2018-03-01T08:35:42.546Z,75.66
2018-03-01T08:37:35.427Z,75.56
2018-03-01T08:38:35.267Z,76.04
2018-03-01T08:40:28.185Z,75.66
2018-03-01T08:41:28.020Z,75.66
2018-03-01T08:43:20.916Z,74.90
2018-03-01T08:44:20.774Z,75.09
2018-03-01T08:46:14.143Z,75.47
2018-03-01T08:47:14.032Z,75.56
2018-03-01T08:49:06.906Z,74.81
2018-03-01T08:50:06.793Z,74.53
2018-03-01T08:51:59.759Z,75.00
2018-03-01T08:52:59.641Z,74.62
2018-03-01T08:54:52.527Z,74.24
2018-03-01T08:55:52.388Z,73.68
2018-03-01T08:57:45.710Z,73.77
2018-03-01T08:58:45.143Z,73.21
2018-03-01T09:00:38.026Z,73.58
2018-03-01T09:01:37.888Z,72.83
2018-03-01T09:03:30.761Z,73.21
2018-03-01T09:04:30.630Z,73.11
2018-03-01T09:06:23.522Z,72.55
2018-03-01T09:07:23.389Z,72.27
2018-03-01T09:09:16.248Z,72.08
2018-03-01T09:10:16.135Z,72.45
2018-03-01T09:12:09.020Z,72.27
2018-03-01T09:13:08.879Z,72.83
2018-03-01T09:15:01.752Z,72.36
2018-03-01T09:16:01.637Z,72.08
2018-03-01T09:17:54.533Z,71.51
2018-03-01T09:18:54.412Z,71.36
2018-03-01T09:20:47.242Z,70.89
2018-03-01T09:21:47.126Z,70.51
2018-03-01T09:23:40.014Z,70.32
2018-03-01T09:24:39.887Z,70.23
2018-03-01T09:26:32.741Z,69.85
2018-03-01T09:27:32.631Z,70.51
2018-03-01T09:29:25.976Z,70.70
2018-03-01T09:30:25.393Z,70.14
2018-03-01T09:32:18.758Z,69.95
2018-03-01T09:33:18.644Z,69.48
2018-03-01T09:35:11.533Z,69.00
2018-03-01T09:36:11.396Z,69.57
2018-03-01T09:38:04.265Z,68.72
2018-03-01T09:39:04.147Z,69.67
2018-03-01T09:40:57.206Z,68.72
2018-03-01T09:41:56.922Z,68.72
2018-03-01T09:43:49.746Z,68.53
2018-03-01T09:44:49.638Z,68.25
2018-03-01T09:46:42.529Z,68.34
2018-03-01T09:47:42.399Z,68.53
2018-03-01T09:49:35.252Z,67.49
2018-03-01T09:50:35.142Z,67.02
2018-03-01T09:52:28.003Z,67.59
2018-03-01T09:53:27.897Z,67.68
2018-03-01T09:55:21.790Z,67.49
2018-03-01T09:56:21.670Z,67.87
2018-03-01T09:58:14.547Z,67.49
2018-03-01T09:59:14.424Z,67.30
2018-03-01T10:01:07.294Z,66.64
2018-03-01T10:02:07.171Z,66.27
2018-03-01T10:04:00.047Z,66.74
2018-03-01T10:04:59.914Z,67.02
2018-03-01T10:06:52.766Z,65.89
2018-03-01T10:07:52.662Z,65.80
2018-03-01T10:09:45.561Z,65.61
2018-03-01T10:10:45.423Z,65.33
2018-03-01T10:12:38.270Z,65.52
2018-03-01T10:13:38.168Z,65.52
2018-03-01T10:15:31.065Z,64.95
2018-03-01T10:16:30.918Z,65.42
2018-03-01T10:18:23.890Z,65.14
2018-03-01T10:19:23.760Z,65.52
2018-03-01T10:21:16.645Z,65.23
2018-03-01T10:22:16.526Z,64.29
2018-03-01T10:24:09.372Z,65.14
2018-03-01T10:25:09.257Z,65.45
2018-03-01T10:27:02.136Z,65.36
2018-03-01T10:28:02.007Z,64.61
2018-03-01T10:29:54.874Z,62.97
2018-03-01T10:30:54.759Z,63.06
2018-03-01T10:32:47.644Z,63.10
2018-03-01T10:33:47.510Z,63.29
2018-03-01T10:35:40.376Z,62.72
2018-03-01T10:36:40.256Z,62.91
2018-03-01T10:38:33.149Z,63.19
2018-03-01T10:39:33.071Z,63.29
2018-03-01T10:41:25.893Z,62.53
2018-03-01T10:42:25.767Z,62.43
2018-03-01T10:44:18.645Z,61.96
2018-03-01T10:45:18.506Z,61.58
2018-03-01T10:47:11.392Z,61.68
2018-03-01T10:48:11.267Z,61.58
2018-03-01T10:50:04.148Z,61.96
2018-03-01T10:51:04.075Z,61.87
2018-03-01T10:52:56.867Z,62.06
2018-03-01T10:53:56.776Z,62.34
2018-03-01T10:55:49.634Z,61.40
2018-03-01T10:56:49.512Z,60.74
2018-03-01T10:58:42.364Z,61.11
2018-03-01T10:59:42.253Z,60.83
2018-03-01T11:01:35.641Z,59.99
2018-03-01T11:02:35.520Z,59.61
2018-03-01T11:04:28.377Z,59.33
2018-03-01T11:05:28.267Z,59.33
2018-03-01T11:07:21.144Z,59.04
2018-03-01T11:08:21.020Z,59.23
2018-03-01T11:10:13.883Z,58.38
2018-03-01T11:11:13.789Z,58.76
2018-03-01T11:13:06.646Z,59.23
2018-03-01T11:14:06.516Z,58.76
2018-03-01T11:15:59.294Z,58.38
2018-03-01T11:16:59.168Z,58.19
2018-03-01T11:18:51.931Z,57.75
2018-03-01T11:19:51.814Z,57.72
2018-03-01T11:21:44.565Z,57.37
2018-03-01T11:22:44.457Z,57.65
2018-03-01T11:24:37.229Z,57.94
2018-03-01T11:25:37.113Z,57.94
2018-03-01T11:27:30.164Z,56.90
2018-03-01T11:28:30.067Z,57.28
2018-03-01T11:30:22.859Z,56.34
2018-03-01T11:31:22.708Z,55.96
2018-03-01T11:33:15.468Z,56.15
2018-03-01T11:34:15.364Z,56.52
2018-03-01T11:36:08.152Z,56.34
2018-03-01T11:37:08.017Z,56.24
2018-03-01T11:39:00.756Z,55.86
2018-03-01T11:40:00.651Z,55.77
2018-03-01T11:41:53.471Z,55.67
2018-03-01T11:42:53.304Z,55.39
2018-03-01T11:44:46.313Z,55.39
2018-03-01T11:45:46.157Z,55.01
2018-03-01T11:47:38.938Z,53.97
2018-03-01T11:48:38.794Z,54.16
2018-03-01T11:50:31.552Z,53.97
2018-03-01T11:51:31.447Z,53.78
2018-03-01T11:53:24.573Z,54.07
2018-03-01T11:54:24.193Z,55.01
2018-03-01T11:56:16.950Z,54.54
2018-03-01T11:57:16.893Z,54.16
2018-03-01T11:59:09.869Z,54.35
2018-03-01T12:00:09.491Z,53.50
2018-03-01T12:02:02.249Z,54.00
2018-03-01T12:03:02.165Z,53.91
2018-03-01T12:04:55.162Z,53.06
2018-03-01T12:05:54.781Z,52.56
2018-03-01T12:07:47.590Z,53.31
2018-03-01T12:08:47.438Z,53.78
2018-03-01T12:10:40.230Z,53.63
2018-03-01T12:11:40.080Z,53.81
2018-03-01T12:13:32.835Z,53.81
2018-03-01T12:14:32.737Z,53.72
2018-03-01T12:16:25.512Z,52.87
2018-03-01T12:17:25.393Z,52.96
2018-03-01T12:19:18.127Z,51.92
2018-03-01T12:20:18.026Z,51.36
2018-03-01T12:22:11.052Z,52.21
2018-03-01T12:23:10.678Z,52.40
2018-03-01T12:25:03.422Z,52.30
2018-03-01T12:26:03.318Z,52.11
2018-03-01T12:27:56.205Z,51.83
2018-03-01T12:28:56.081Z,51.64
2018-03-01T12:30:48.817Z,51.92
2018-03-01T12:31:48.722Z,52.11
2018-03-01T12:33:41.486Z,51.17
2018-03-01T12:34:41.396Z,50.70
2018-03-01T12:36:34.116Z,51.54
2018-03-01T12:37:34.015Z,51.54
2018-03-01T12:39:27.020Z,51.92
2018-03-01T12:40:26.686Z,51.83
2018-03-01T12:42:19.697Z,52.21
2018-03-01T12:43:19.318Z,51.92
2018-03-01T12:45:12.081Z,52.02
2018-03-01T12:46:11.970Z,51.64
2018-03-01T12:48:04.848Z,51.64
2018-03-01T12:49:04.603Z,51.64
2018-03-01T12:50:57.766Z,51.83
2018-03-01T12:51:57.254Z,51.45
2018-03-01T12:53:50.033Z,50.51
2018-03-01T12:54:49.895Z,50.51
2018-03-01T12:56:42.678Z,50.79
2018-03-01T12:57:42.575Z,51.36
2018-03-01T12:59:35.290Z,50.60
2018-03-01T13:00:35.183Z,51.26
2018-03-01T13:02:28.221Z,51.36
2018-03-01T13:03:27.852Z,50.60
2018-03-01T13:05:20.669Z,50.32
2018-03-01T13:06:20.486Z,49.76
2018-03-01T13:08:13.607Z,49.87
2018-03-01T13:09:13.236Z,49.94
2018-03-01T13:11:06.697Z,49.85
2018-03-01T13:12:06.586Z,49.57
2018-03-01T13:13:59.368Z,50.42
2018-03-01T13:14:59.251Z,50.89
2018-03-01T13:16:52.005Z,50.25
2018-03-01T13:17:51.897Z,49.49
2018-03-01T13:19:44.651Z,49.49
2018-03-01T13:20:44.542Z,50.53
2018-03-01T13:22:37.410Z,49.97
2018-03-01T13:23:37.284Z,49.68
2018-03-01T13:25:30.551Z,49.59
2018-03-01T13:26:30.450Z,48.65
2018-03-01T13:28:23.229Z,49.49
2018-03-01T13:29:23.094Z,49.30
2018-03-01T13:31:15.849Z,49.49
2018-03-01T13:32:15.748Z,49.21
2018-03-01T13:34:08.529Z,48.43
2018-03-01T13:35:08.392Z,49.19
2018-03-01T13:37:01.242Z,49.28
2018-03-01T13:38:01.043Z,49.66
2018-03-01T13:39:53.854Z,49.00
2018-03-01T13:40:53.678Z,49.28
2018-03-01T13:42:46.444Z,49.19
2018-03-01T13:43:46.375Z,49.66
2018-03-01T13:45:39.114Z,48.62
2018-03-01T13:46:38.986Z,48.43
2018-03-01T13:48:31.738Z,49.87
2018-03-01T13:49:31.621Z,49.21
2018-03-01T13:51:24.418Z,48.93
2018-03-01T13:52:24.276Z,48.55
2018-03-01T13:54:17.032Z,48.36
2018-03-01T13:55:16.924Z,47.96
2018-03-01T13:57:09.681Z,47.49
2018-03-01T13:58:09.570Z,48.34
2018-03-01T14:00:02.317Z,48.18
2018-03-01T14:01:02.211Z,48.27
2018-03-01T14:02:55.265Z,47.51
2018-03-01T14:03:54.867Z,47.61
2018-03-01T14:05:47.624Z,47.80
2018-03-01T14:06:47.508Z,47.61
2018-03-01T14:08:40.290Z,46.66
2018-03-01T14:09:40.161Z,46.75
2018-03-01T14:11:32.898Z,47.04
2018-03-01T14:12:32.810Z,46.94
2018-03-01T14:14:25.936Z,46.66
2018-03-01T14:15:25.551Z,47.04
2018-03-01T14:17:18.318Z,47.51
2018-03-01T14:18:18.210Z,47.70
2018-03-01T14:20:11.216Z,46.75
2018-03-01T14:21:10.859Z,46.83
2018-03-01T14:23:03.598Z,46.66
2018-03-01T14:24:03.489Z,47.23
2018-03-01T14:25:56.322Z,45.81
2018-03-01T14:26:56.136Z,46.09
2018-03-01T14:28:48.985Z,46.19
2018-03-01T14:29:48.883Z,45.62
2018-03-01T14:31:41.680Z,44.98
2018-03-01T14:32:41.540Z,44.60
2018-03-01T14:34:34.390Z,44.32
2018-03-01T14:35:34.315Z,44.32
2018-03-01T14:37:27.089Z,43.95
2018-03-01T14:38:26.932Z,43.57
2018-03-01T14:40:19.677Z,42.62
2018-03-01T14:41:19.587Z,42.34
2018-03-01T14:43:12.366Z,42.36
2018-03-01T14:44:12.221Z,41.60
2018-03-01T14:46:04.982Z,41.41
2018-03-01T14:47:04.882Z,41.51
2018-03-01T14:48:57.675Z,40.66
2018-03-01T14:49:57.522Z,40.37
2018-03-01T14:51:50.425Z,39.90
2018-03-01T14:52:50.308Z,40.92
2018-03-01T14:54:43.059Z,41.32
2018-03-01T14:55:42.915Z,41.32
2018-03-01T14:57:35.764Z,40.28
2018-03-01T14:58:35.656Z,40.28
2018-03-01T15:00:28.454Z,39.54
2018-03-01T15:01:28.312Z,38.86
2018-03-01T15:03:21.176Z,38.76
2018-03-01T15:04:21.055Z,38.95
2018-03-01T15:06:13.971Z,38.95
2018-03-01T15:07:13.812Z,39.07
2018-03-01T15:09:06.576Z,39.26
2018-03-01T15:10:06.458Z,38.50
2018-03-01T15:11:59.260Z,38.48
2018-03-01T15:12:59.132Z,39.05
2018-03-01T15:14:51.968Z,38.76
2018-03-01T15:15:51.852Z,39.14
2018-03-01T15:17:44.661Z,38.57
2018-03-01T15:18:44.498Z,39.43
2018-03-01T15:20:37.780Z,39.81
2018-03-01T15:21:37.674Z,39.33
2018-03-01T15:23:30.450Z,39.33
2018-03-01T15:24:30.314Z,38.86
2018-03-01T15:26:23.573Z,40.00
2018-03-01T15:27:23.473Z,40.00
2018-03-01T15:29:16.259Z,39.52
2018-03-01T15:30:16.119Z,39.97
2018-03-01T15:32:08.968Z,39.71
2018-03-01T15:33:08.859Z,39.69
2018-03-01T15:35:01.787Z,39.78
2018-03-01T15:36:01.613Z,40.16
2018-03-01T15:37:54.468Z,40.35
2018-03-01T15:38:54.380Z,40.16
2018-03-01T15:40:47.256Z,40.73
2018-03-01T15:41:47.120Z,41.18
2018-03-01T15:43:39.974Z,42.22
2018-03-01T15:44:39.875Z,43.07
2018-03-01T15:46:32.769Z,43.35
2018-03-01T15:47:32.647Z,43.07
2018-03-01T15:49:25.464Z,42.79
2018-03-01T15:50:25.379Z,42.60
2018-03-01T15:52:18.493Z,43.16
2018-03-01T15:53:18.113Z,43.54
2018-03-01T15:55:11.100Z,44.37
2018-03-01T15:56:10.967Z,45.03
2018-03-01T15:58:03.867Z,46.83
2018-03-01T15:59:03.743Z,47.02
2018-03-01T16:00:56.609Z,47.20
2018-03-01T16:01:56.492Z,47.30
2018-03-01T16:03:49.351Z,47.46
2018-03-01T16:04:49.209Z,47.56
2018-03-01T16:06:42.058Z,47.84
2018-03-01T16:07:41.981Z,48.32
2018-03-01T16:09:34.822Z,48.97
2018-03-01T16:10:34.714Z,48.97
2018-03-01T16:12:27.567Z,49.54
2018-03-01T16:13:27.458Z,49.54
2018-03-01T16:15:20.260Z,49.82
2018-03-01T16:16:20.105Z,50.39
2018-03-01T16:18:12.956Z,50.48
2018-03-01T16:19:12.850Z,49.82
2018-03-01T16:21:07.001Z,50.10
2018-03-01T16:22:06.631Z,50.95
2018-03-01T16:23:59.477Z,50.86
2018-03-01T16:24:59.375Z,50.58
2018-03-01T16:26:52.168Z,50.18
2018-03-01T16:27:52.062Z,50.29
2018-03-01T16:29:46.314Z,50.36
2018-03-01T16:30:46.208Z,50.55
2018-03-01T16:32:39.101Z,50.27
2018-03-01T16:33:38.970Z,50.93
2018-03-01T16:35:31.817Z,50.65
2018-03-01T16:36:31.758Z,50.74
2018-03-01T16:38:24.840Z,51.12
2018-03-01T16:39:24.461Z,51.12
2018-03-01T16:41:17.308Z,51.87
2018-03-01T16:42:17.210Z,51.97
2018-03-01T16:44:10.090Z,52.72
2018-03-01T16:45:09.962Z,52.62
2018-03-01T16:47:03.336Z,51.97
2018-03-01T16:48:03.213Z,52.81
2018-03-01T16:49:55.997Z,52.15
2018-03-01T16:50:55.860Z,52.81
2018-03-01T16:52:48.732Z,52.62
2018-03-01T16:53:48.612Z,52.53
2018-03-01T16:55:41.413Z,53.38
2018-03-01T16:56:41.258Z,53.38
2018-03-01T16:58:34.114Z,53.10
2018-03-01T16:59:34.012Z,53.10
2018-03-01T17:01:27.557Z,53.00
2018-03-01T17:02:27.162Z,53.47
2018-03-01T17:04:24.950Z,54.04
2018-03-01T17:05:24.832Z,54.04
2018-03-01T17:07:18.141Z,53.57
2018-03-01T17:08:17.993Z,53.76
2018-03-01T17:10:12.287Z,54.14
2018-03-01T17:11:12.183Z,54.23
2018-03-01T17:13:05.297Z,54.04
2018-03-01T17:14:04.931Z,54.33
2018-03-01T17:15:57.680Z,54.33
2018-03-01T17:16:57.573Z,54.70
2018-03-01T17:18:51.099Z,54.99
2018-03-01T17:19:50.760Z,54.99
2018-03-01T17:21:43.586Z,54.70
2018-03-01T17:22:43.478Z,54.51
2018-03-01T17:24:36.754Z,54.33
2018-03-01T17:25:36.640Z,54.30
2018-03-01T17:27:29.490Z,54.68
2018-03-01T17:28:29.388Z,55.05
2018-03-01T17:30:22.180Z,55.27
2018-03-01T17:31:22.033Z,55.52
2018-03-01T17:33:14.792Z,55.99
2018-03-01T17:34:14.686Z,56.46
2018-03-01T17:36:07.570Z,56.93
2018-03-01T17:37:07.485Z,56.56
2018-03-01T17:39:00.828Z,56.84
2018-03-01T17:40:00.718Z,57.31
2018-03-01T17:41:53.873Z,57.31
2018-03-01T17:42:53.447Z,57.12
2018-03-01T17:44:47.739Z,57.31
2018-03-01T17:45:47.733Z,57.22
2018-03-01T17:47:40.510Z,56.46
2018-03-01T17:48:40.366Z,56.46
2018-03-01T17:50:33.249Z,57.22
2018-03-01T17:51:33.117Z,57.22
2018-03-01T17:53:26.010Z,57.31
2018-03-01T17:54:25.868Z,57.22
2018-03-01T17:56:18.751Z,57.41
2018-03-01T17:57:18.625Z,57.69
2018-03-01T17:59:11.494Z,57.60
2018-03-01T18:00:11.373Z,57.50
2018-03-01T18:02:04.225Z,57.50
2018-03-01T18:03:04.127Z,57.78
2018-03-01T18:04:59.109Z,57.88
2018-03-01T18:05:58.401Z,57.88
2018-03-01T18:07:51.724Z,57.97
2018-03-01T18:08:51.625Z,57.88
2018-03-01T18:10:44.132Z,58.16
2018-03-01T18:11:44.010Z,58.26
2018-03-01T18:13:36.877Z,58.26
2018-03-01T18:14:36.757Z,58.45
2018-03-01T18:16:29.654Z,58.73
2018-03-01T18:17:29.513Z,58.73
2018-03-01T18:19:22.366Z,58.54
2018-03-01T18:20:22.259Z,58.73
2018-03-01T18:22:15.534Z,59.30
2018-03-01T18:23:15.423Z,59.58
2018-03-01T18:25:08.913Z,59.20
2018-03-01T18:26:08.782Z,59.30
2018-03-01T18:28:01.679Z,59.20
2018-03-01T18:29:01.542Z,59.39
2018-03-01T18:30:54.385Z,59.95
2018-03-01T18:31:54.274Z,59.95
2018-03-01T18:33:47.154Z,60.24